Melbourne, FL

1:02 PM EST on January 27, 2015 (GMT -0500)
Florida Tech | Change Station
CLOSE
Current Station
Personal Weather Station
Location: Melbourne, FL
Elevation: 26 ft
Nearby Weather Stations
Active Advisory: Lake Wind Advisory Active Notice: Local Storm Report

Elev 26 ft 28.06 °N, 80.62 °W | Updated 7 seconds ago

Clear
Clear
62.0 °F
Feels Like 62.0 °F
N
11.0
Wind Variable Wind from SW
Gusts 22.0 mph

Today
High -- | Low -- °F
--% Chance of Precip.
Yesterday
High -- | Low -- °F
Precip. -- in
7:12 AM 5:58 PM
First Quarter, 56% visible
Pressure 29.97 in
Visibility 10.0 miles
Clouds Clear
Dew Point 39 °F
Humidity 42%
Rainfall 0.00 in
Snow Depth Not available.
UV 7 out of 12
Pollen 10.00 out of 12
Air Quality Not available.
Flu Activity Not available.
METAR KMLB 271753Z 27013KT 10SM CLR 18/02 A2997 RMK AO2 SLP149 T01780022 10178 20056 58027

More Conditions Fewer Conditions

Pressure 29.97 in
Visibility 10.0 miles
Clouds Clear
Dew Point 39 °F
Humidity 42%
Rainfall 0.00 in
Snow Depth Not available.
UV 7 out of 12
Pollen 10.00 out of 12
Air Quality Not available.
Flu Activity Not available.
METAR KMLB 271753Z 27013KT 10SM CLR 18/02 A2997 RMK AO2 SLP149 T01780022 10178 20056 58027

More Conditions Fewer Conditions

10-Day Weather Forecast

Almanac

Astronomy

Jan. 27, 2015 Rise Set
Actual Time
Civil Twilight
Nautical Twilight
Astronomical Twilight
Moon
Length of Visible Light
Length of Day
Tomorrow will be .
, % of the Moon is Illuminated

Today's Extremes

State Highs State Lows

Community

WunderPhotos

Upload Photos

1,790,745 photos uploaded!

WunderBlogs® & News

Nearby

Air Quality

  Air Quality AQ Index Pollutant
Not available.

Snow Depth

Station Depth Elevation

Earthquake Activity

City Distance Mag. Time & Date
Minimum magnitude displayed is 2.5.

Coastal Water Temperatures

Place Temperature

Nearby Weather Stations